createdAt,value
2018-03-26T00:02:02.084Z,49.27
2018-03-26T00:04:29.577Z,51.23
2018-03-26T00:06:57.083Z,52.30
2018-03-26T00:09:25.339Z,54.40
2018-03-26T00:11:52.828Z,50.63
2018-03-26T00:14:20.347Z,52.10
2018-03-26T00:16:47.983Z,53.53
2018-03-26T00:19:15.481Z,53.33
2018-03-26T00:21:43.064Z,52.30
2018-03-26T00:24:11.335Z,53.47
2018-03-26T00:26:39.590Z,53.17
2018-03-26T00:29:07.111Z,53.30
2018-03-26T00:31:34.599Z,52.30
2018-03-26T00:34:02.090Z,54.00
2018-03-26T00:36:30.365Z,50.70
2018-03-26T00:38:58.648Z,50.10
2018-03-26T00:41:26.155Z,53.83
2018-03-26T00:43:53.667Z,51.20
2018-03-26T00:46:21.226Z,53.97
2018-03-26T00:48:48.784Z,51.57
2018-03-26T00:51:16.353Z,55.57
2018-03-26T00:53:43.854Z,53.97
2018-03-26T00:56:11.360Z,54.50
2018-03-26T00:58:38.932Z,52.97
2018-03-26T01:01:06.494Z,54.13
2018-03-26T01:03:34.005Z,54.60
2018-03-26T01:06:01.603Z,53.87
2018-03-26T01:08:29.092Z,54.53
2018-03-26T01:10:56.574Z,57.43
2018-03-26T01:13:24.188Z,55.63
2018-03-26T01:15:51.681Z,56.33
2018-03-26T01:18:19.197Z,55.30
2018-03-26T01:20:46.717Z,56.50
2018-03-26T01:23:15.035Z,53.47
2018-03-26T01:25:42.527Z,56.23
2018-03-26T01:28:10.052Z,52.67
2018-03-26T01:30:37.546Z,55.80
2018-03-26T01:33:05.063Z,54.80
2018-03-26T01:35:32.624Z,53.27
2018-03-26T01:38:00.183Z,53.93
2018-03-26T01:40:27.678Z,54.83
2018-03-26T01:42:55.200Z,55.37
2018-03-26T01:45:22.761Z,55.63
2018-03-26T01:47:50.260Z,55.43
2018-03-26T01:50:17.813Z,55.77
2018-03-26T01:52:45.332Z,58.27
2018-03-26T01:55:12.892Z,54.43
2018-03-26T01:57:41.273Z,57.27
2018-03-26T02:00:08.772Z,56.43
2018-03-26T02:02:36.292Z,55.03
2018-03-26T02:05:03.819Z,55.20
2018-03-26T02:07:32.849Z,52.50
2018-03-26T02:10:01.154Z,55.10
2018-03-26T02:12:28.676Z,54.60
2018-03-26T02:14:56.943Z,53.60
2018-03-26T02:17:24.435Z,56.60
2018-03-26T02:19:51.983Z,57.13
2018-03-26T02:22:19.544Z,53.77
2018-03-26T02:24:47.044Z,59.23
2018-03-26T02:27:14.661Z,57.77
2018-03-26T02:29:42.228Z,56.30
2018-03-26T02:32:09.741Z,58.93
2018-03-26T02:34:37.341Z,55.00
2018-03-26T02:37:04.904Z,55.27
2018-03-26T02:39:32.389Z,57.27
2018-03-26T02:42:00.121Z,60.20
2018-03-26T02:44:28.469Z,56.40
2018-03-26T02:46:55.974Z,56.63
2018-03-26T02:49:23.487Z,55.30
2018-03-26T02:51:50.997Z,57.93
2018-03-26T02:54:18.530Z,59.23
2018-03-26T02:56:46.102Z,56.37
2018-03-26T02:59:13.589Z,56.00
2018-03-26T03:01:41.117Z,59.53
2018-03-26T03:04:08.622Z,57.60
2018-03-26T03:06:36.128Z,57.33
2018-03-26T03:09:03.624Z,56.67
2018-03-26T03:11:31.145Z,54.93
2018-03-26T03:13:59.416Z,59.83
2018-03-26T03:16:27.695Z,57.70
2018-03-26T03:18:56.067Z,55.20
2018-03-26T03:21:24.318Z,57.43
2018-03-26T03:23:52.623Z,59.97
2018-03-26T03:26:20.901Z,63.17
2018-03-26T03:28:49.166Z,58.83
2018-03-26T03:31:17.456Z,57.90
2018-03-26T03:33:45.732Z,62.90
2018-03-26T03:36:14.086Z,58.97
2018-03-26T03:38:41.599Z,60.27
2018-03-26T03:41:09.227Z,62.90
2018-03-26T03:43:37.495Z,62.43
2018-03-26T03:46:05.760Z,57.77
2018-03-26T03:48:33.344Z,61.93
2018-03-26T03:51:01.622Z,56.37
2018-03-26T03:53:29.924Z,60.83
2018-03-26T03:55:57.465Z,57.17
2018-03-26T03:58:25.015Z,58.73
2018-03-26T04:00:53.283Z,61.70
2018-03-26T04:03:20.786Z,58.73
2018-03-26T04:05:48.284Z,60.43
2018-03-26T04:08:15.881Z,58.93
2018-03-26T04:10:43.425Z,60.07
2018-03-26T04:13:11.738Z,59.27
2018-03-26T04:15:39.273Z,61.60
2018-03-26T04:18:07.530Z,59.67
2018-03-26T04:20:35.048Z,60.20
2018-03-26T04:23:02.547Z,62.10
2018-03-26T04:25:30.123Z,63.57
2018-03-26T04:27:58.383Z,66.07
2018-03-26T04:30:25.959Z,62.53
2018-03-26T04:32:54.273Z,62.37
2018-03-26T04:35:21.762Z,66.17
2018-03-26T04:37:50.772Z,60.17
2018-03-26T04:40:18.265Z,65.43
2018-03-26T04:42:45.823Z,63.33
2018-03-26T04:45:13.397Z,66.60
2018-03-26T04:47:40.931Z,60.73
2018-03-26T04:50:08.493Z,65.90
2018-03-26T04:52:36.756Z,61.53
2018-03-26T04:55:04.257Z,64.67
2018-03-26T04:57:31.792Z,64.57
2018-03-26T04:59:59.398Z,63.57
2018-03-26T05:02:27.003Z,71.43
2018-03-26T05:04:55.270Z,71.37
2018-03-26T05:07:23.546Z,62.30
2018-03-26T05:09:51.924Z,69.83
2018-03-26T05:12:20.220Z,68.20
2018-03-26T05:14:47.723Z,64.10
2018-03-26T05:17:15.224Z,67.60
2018-03-26T05:19:43.512Z,64.70
2018-03-26T05:22:11.082Z,62.93
2018-03-26T05:24:39.552Z,67.30
2018-03-26T05:27:07.103Z,64.07
2018-03-26T05:29:35.392Z,62.30
2018-03-26T05:32:02.950Z,64.13
2018-03-26T05:34:30.499Z,62.57
2018-03-26T05:36:58.909Z,62.90
2018-03-26T05:39:26.386Z,67.63
2018-03-26T05:41:53.892Z,63.10
2018-03-26T05:44:22.143Z,63.30
2018-03-26T05:46:49.645Z,66.03
2018-03-26T05:49:17.218Z,66.90
2018-03-26T05:51:44.729Z,67.13
2018-03-26T05:54:12.314Z,62.00
2018-03-26T05:56:40.597Z,66.07
2018-03-26T05:59:08.084Z,64.10
2018-03-26T06:01:35.611Z,64.37
2018-03-26T06:04:03.107Z,66.57
2018-03-26T06:06:30.611Z,70.07
2018-03-26T06:08:58.915Z,70.87
2018-03-26T06:11:26.413Z,66.17
2018-03-26T06:13:53.929Z,65.30
2018-03-26T06:16:21.408Z,65.50
2018-03-26T06:18:49.860Z,62.60
2018-03-26T06:21:18.115Z,64.73
2018-03-26T06:23:45.627Z,65.27
2018-03-26T06:26:13.133Z,66.77
2018-03-26T06:28:40.648Z,68.17
2018-03-26T06:31:08.207Z,70.57
2018-03-26T06:33:35.711Z,61.83
2018-03-26T06:36:03.223Z,69.70
2018-03-26T06:38:36.417Z,70.50
2018-03-26T06:41:03.912Z,64.43
2018-03-26T06:43:31.509Z,72.03
2018-03-26T06:45:59.054Z,63.60
2018-03-26T06:48:27.326Z,67.50
2018-03-26T06:50:55.612Z,67.57
2018-03-26T06:53:23.892Z,68.27
2018-03-26T06:55:52.159Z,68.70
2018-03-26T06:58:22.516Z,70.13
2018-03-26T07:00:50.047Z,70.87
2018-03-26T07:03:18.311Z,68.30
2018-03-26T07:05:45.892Z,65.33
2018-03-26T07:08:13.443Z,64.60
2018-03-26T07:10:41.729Z,68.73
2018-03-26T07:13:10.011Z,65.30
2018-03-26T07:15:37.487Z,67.37
2018-03-26T07:18:05.029Z,68.10
2018-03-26T07:20:32.579Z,68.03
2018-03-26T07:23:00.161Z,68.70
2018-03-26T07:25:27.659Z,65.77
2018-03-26T07:27:55.179Z,66.00
2018-03-26T07:30:22.663Z,63.47
2018-03-26T07:32:50.192Z,69.23
2018-03-26T07:35:17.686Z,64.77
2018-03-26T07:37:45.186Z,64.93
2018-03-26T07:40:13.439Z,68.70
2018-03-26T07:42:40.950Z,67.43
2018-03-26T07:45:08.442Z,66.13
2018-03-26T07:47:35.947Z,61.27
2018-03-26T07:50:03.513Z,63.53
2018-03-26T07:52:31.023Z,67.03
2018-03-26T07:54:59.514Z,68.17
2018-03-26T07:57:27.128Z,66.90
2018-03-26T07:59:54.651Z,69.00
2018-03-26T08:02:23.023Z,71.77
2018-03-26T08:04:51.612Z,70.67
2018-03-26T08:07:19.888Z,67.73
2018-03-26T08:09:48.204Z,64.77
2018-03-26T08:12:15.716Z,67.90
2018-03-26T08:14:43.224Z,66.10
2018-03-26T08:17:10.789Z,66.40
2018-03-26T08:19:39.027Z,65.13
2018-03-26T08:22:06.536Z,60.27
2018-03-26T08:24:34.058Z,64.20
2018-03-26T08:27:01.564Z,63.10
2018-03-26T08:29:29.047Z,64.70
2018-03-26T08:31:56.540Z,70.20
2018-03-26T08:34:24.091Z,69.43
2018-03-26T08:36:51.627Z,67.13
2018-03-26T08:39:19.895Z,65.73
2018-03-26T08:41:47.392Z,66.70
2018-03-26T08:44:14.917Z,67.87
2018-03-26T08:46:42.428Z,64.00
2018-03-26T08:49:09.948Z,64.47
2018-03-26T08:51:37.528Z,62.30
2018-03-26T08:54:05.020Z,64.97
2018-03-26T08:56:32.530Z,66.80
2018-03-26T08:59:00.806Z,67.07
2018-03-26T09:01:29.071Z,76.27
2018-03-26T09:03:57.336Z,67.83
2018-03-26T09:06:24.828Z,62.97
2018-03-26T09:08:52.523Z,61.40
2018-03-26T09:11:20.036Z,61.03
2018-03-26T09:13:48.295Z,59.70
2018-03-26T09:16:15.800Z,60.50
2018-03-26T09:18:43.307Z,63.83
2018-03-26T09:21:10.811Z,59.67
2018-03-26T09:23:38.311Z,59.70
2018-03-26T09:26:05.837Z,60.17
2018-03-26T09:28:33.354Z,62.20
2018-03-26T09:31:01.835Z,56.87
2018-03-26T09:33:30.119Z,56.50
2018-03-26T09:35:59.550Z,56.27
2018-03-26T09:38:27.035Z,56.27
2018-03-26T09:40:54.543Z,55.73
2018-03-26T09:43:22.812Z,56.97
2018-03-26T09:45:51.083Z,53.70
2018-03-26T09:48:18.658Z,57.67
2018-03-26T09:50:46.965Z,55.77
2018-03-26T09:53:14.535Z,54.77
2018-03-26T09:55:42.785Z,57.53
2018-03-26T09:58:10.360Z,53.43
2018-03-26T10:00:43.601Z,56.83
2018-03-26T10:03:11.131Z,58.27
2018-03-26T10:05:38.627Z,54.47
2018-03-26T10:08:06.208Z,56.37
2018-03-26T10:10:34.479Z,52.57
2018-03-26T10:13:02.873Z,57.43
2018-03-26T10:15:30.444Z,55.13
2018-03-26T10:17:57.975Z,54.17
2018-03-26T10:20:26.254Z,54.00
2018-03-26T10:22:54.547Z,57.33
2018-03-26T10:25:22.040Z,52.50
2018-03-26T10:27:49.567Z,54.27
2018-03-26T10:30:17.114Z,56.97
2018-03-26T10:32:45.373Z,56.40
2018-03-26T10:35:12.872Z,56.40
2018-03-26T10:37:40.368Z,54.70
2018-03-26T10:40:07.964Z,57.37
2018-03-26T10:42:36.221Z,55.50
2018-03-26T10:45:03.792Z,54.20
2018-03-26T10:47:32.088Z,53.87
2018-03-26T10:49:59.647Z,56.90
2018-03-26T10:52:27.136Z,55.00
2018-03-26T10:54:54.623Z,59.13
2018-03-26T10:57:22.116Z,55.57
2018-03-26T10:59:50.409Z,52.77
2018-03-26T11:02:17.960Z,52.70
2018-03-26T11:04:45.444Z,49.80
2018-03-26T11:07:12.946Z,49.80
2018-03-26T11:09:40.435Z,50.57
2018-03-26T11:12:07.934Z,48.97
2018-03-26T11:14:35.435Z,49.10
2018-03-26T11:17:03.694Z,49.50
2018-03-26T11:19:31.279Z,47.93
2018-03-26T11:21:59.547Z,44.20
2018-03-26T11:24:27.797Z,46.80
2018-03-26T11:26:55.287Z,47.13
2018-03-26T11:29:23.533Z,45.83
2018-03-26T11:31:51.040Z,45.93
2018-03-26T11:34:18.533Z,45.10
2018-03-26T11:36:46.036Z,42.97
2018-03-26T11:39:14.349Z,44.60
2018-03-26T11:41:41.902Z,41.77
2018-03-26T11:44:09.439Z,43.57
2018-03-26T11:46:36.944Z,40.80
2018-03-26T11:49:04.482Z,43.07
2018-03-26T11:51:31.981Z,46.63
2018-03-26T11:53:59.484Z,43.10
2018-03-26T11:56:26.994Z,44.77
2018-03-26T11:58:54.505Z,40.77
2018-03-26T12:01:22.070Z,39.53
2018-03-26T12:03:49.559Z,42.37
2018-03-26T12:06:17.168Z,39.97
2018-03-26T12:08:45.433Z,38.47
2018-03-26T12:11:13.732Z,36.83
2018-03-26T12:13:41.923Z,39.37
2018-03-26T12:16:09.465Z,39.90
2018-03-26T12:18:36.959Z,40.00
2018-03-26T12:21:04.583Z,42.17
2018-03-26T12:23:44.007Z,37.97
2018-03-26T12:26:12.284Z,38.23
2018-03-26T12:28:52.262Z,38.37
2018-03-26T12:31:19.773Z,37.80
2018-03-26T12:33:59.251Z,41.60
2018-03-26T12:36:26.838Z,41.00
2018-03-26T12:38:54.360Z,36.17
2018-03-26T12:41:22.628Z,34.17
2018-03-26T12:43:50.911Z,35.07
2018-03-26T12:46:31.272Z,34.70
2018-03-26T12:48:59.564Z,35.47
2018-03-26T12:51:39.088Z,33.87
2018-03-26T12:54:07.368Z,30.63
2018-03-26T12:56:35.693Z,30.50
2018-03-26T12:59:03.216Z,30.57
2018-03-26T13:01:42.583Z,31.20
2018-03-26T13:04:10.072Z,32.87
2018-03-26T13:06:37.597Z,31.97
2018-03-26T13:09:05.110Z,31.43
2018-03-26T13:11:33.404Z,32.20
2018-03-26T13:14:00.900Z,32.43
2018-03-26T13:16:28.403Z,33.13
2018-03-26T13:18:56.692Z,34.07
2018-03-26T13:21:24.186Z,34.90
2018-03-26T13:23:51.672Z,35.50
2018-03-26T13:26:19.266Z,34.47
2018-03-26T13:28:47.540Z,34.80
2018-03-26T13:31:15.804Z,32.17
2018-03-26T13:33:44.153Z,35.97
2018-03-26T13:36:11.640Z,37.37
2018-03-26T13:38:39.895Z,34.43
2018-03-26T13:41:07.407Z,40.33
2018-03-26T13:43:34.902Z,35.80
2018-03-26T13:46:02.403Z,38.97
2018-03-26T13:48:30.678Z,37.67
2018-03-26T13:50:58.256Z,40.03
2018-03-26T13:53:25.911Z,40.13
2018-03-26T13:55:53.463Z,39.00
2018-03-26T13:58:21.753Z,40.27
2018-03-26T14:00:49.260Z,43.37
2018-03-26T14:03:16.747Z,44.60
2018-03-26T14:05:45.011Z,42.50
2018-03-26T14:08:24.392Z,45.90
2018-03-26T14:14:06.092Z,44.67
2018-03-26T14:16:45.595Z,63.50
2018-03-26T14:19:13.176Z,57.10
2018-03-26T14:21:41.563Z,44.40
2018-03-26T14:24:09.077Z,44.73
2018-03-26T14:26:36.701Z,41.50
2018-03-26T14:29:04.273Z,44.33
2018-03-26T14:31:31.820Z,41.20
2018-03-26T14:33:59.363Z,41.93
2018-03-26T14:36:26.871Z,40.83
2018-03-26T14:38:54.378Z,44.67
2018-03-26T14:41:21.950Z,41.37
2018-03-26T14:43:49.441Z,41.93
2018-03-26T14:46:17.009Z,42.77
2018-03-26T14:48:44.587Z,45.03
2018-03-26T14:51:12.084Z,45.90
2018-03-26T14:53:39.579Z,46.23
2018-03-26T14:56:07.099Z,44.30
2018-03-26T14:58:34.586Z,43.73
2018-03-26T15:01:02.104Z,42.87
2018-03-26T15:03:29.668Z,44.67
2018-03-26T15:05:57.924Z,45.93
2018-03-26T15:08:25.435Z,45.83
2018-03-26T15:10:52.955Z,42.20
2018-03-26T15:13:21.232Z,43.13
2018-03-26T15:15:49.515Z,49.87
2018-03-26T15:18:17.763Z,43.20
2018-03-26T15:20:45.359Z,43.70
2018-03-26T15:23:12.899Z,43.07
2018-03-26T15:25:41.658Z,47.13
2018-03-26T15:28:09.208Z,41.70
2018-03-26T15:30:36.715Z,43.90
2018-03-26T15:33:04.992Z,46.60
2018-03-26T15:35:32.566Z,44.10
2018-03-26T15:38:00.120Z,46.63
2018-03-26T15:40:29.662Z,46.50
2018-03-26T15:42:57.150Z,43.13
2018-03-26T15:45:24.772Z,45.03
2018-03-26T15:47:52.302Z,45.90
2018-03-26T15:50:20.628Z,43.00
2018-03-26T15:52:48.103Z,42.20
2018-03-26T15:55:15.598Z,34.00
2018-03-26T15:57:43.971Z,32.47
2018-03-26T16:00:12.231Z,32.73
2018-03-26T16:02:46.188Z,33.37
2018-03-26T16:05:14.632Z,35.20
2018-03-26T16:07:42.879Z,32.93
2018-03-26T16:10:10.397Z,34.90
2018-03-26T16:12:37.881Z,35.80
2018-03-26T16:15:05.382Z,37.10
2018-03-26T16:17:33.817Z,37.63
2018-03-26T16:20:01.282Z,37.73
2018-03-26T16:22:28.775Z,42.40
2018-03-26T16:24:57.040Z,38.13
2018-03-26T16:27:24.620Z,41.43
2018-03-26T16:29:52.896Z,43.03
2018-03-26T16:32:20.465Z,44.13
2018-03-26T16:34:47.964Z,46.97
2018-03-26T16:37:15.475Z,53.77
2018-03-26T16:39:43.725Z,57.50
2018-03-26T16:45:15.969Z,61.83
2018-03-26T16:47:43.519Z,61.83
2018-03-26T16:50:11.045Z,45.03
2018-03-26T16:52:39.332Z,63.47
2018-03-26T16:55:06.851Z,58.17
2018-03-26T16:57:34.352Z,55.60
2018-03-26T17:00:03.011Z,49.27
2018-03-26T17:02:30.609Z,49.37
2018-03-26T17:04:58.222Z,49.40
2018-03-26T17:07:25.722Z,45.50
2018-03-26T17:09:54.042Z,52.37
2018-03-26T17:12:21.545Z,43.27
2018-03-26T17:14:49.816Z,40.87
2018-03-26T17:17:17.336Z,40.90
2018-03-26T17:19:44.892Z,40.60
2018-03-26T17:22:13.399Z,39.73
2018-03-26T17:24:41.660Z,36.53
2018-03-26T17:27:09.178Z,35.50
2018-03-26T17:29:36.673Z,40.20
2018-03-26T17:32:04.189Z,41.03
2018-03-26T17:34:32.444Z,40.97
2018-03-26T17:36:59.965Z,37.87
2018-03-26T17:39:27.488Z,40.17
2018-03-26T17:41:55.043Z,38.27
2018-03-26T17:44:23.301Z,40.13
2018-03-26T17:46:51.617Z,39.20
2018-03-26T17:49:19.109Z,40.33
2018-03-26T17:51:46.643Z,44.10
2018-03-26T17:54:14.123Z,42.27
2018-03-26T17:56:41.744Z,37.93
2018-03-26T17:59:09.241Z,35.23
2018-03-26T18:01:36.748Z,38.17
2018-03-26T18:04:04.995Z,33.93
2018-03-26T18:06:32.549Z,37.33
2018-03-26T18:09:00.172Z,33.13
2018-03-26T18:11:27.713Z,34.10
2018-03-26T18:13:55.334Z,32.13
2018-03-26T18:16:23.616Z,35.67
2018-03-26T18:18:51.873Z,33.20
2018-03-26T18:21:19.476Z,33.37
2018-03-26T18:23:47.772Z,31.80
2018-03-26T18:26:15.288Z,31.43
2018-03-26T18:28:42.901Z,35.43
2018-03-26T18:31:10.441Z,33.13
2018-03-26T18:33:38.136Z,34.23
2018-03-26T18:36:05.643Z,36.37
2018-03-26T18:38:33.949Z,32.10
2018-03-26T18:41:01.452Z,29.73
2018-03-26T18:43:28.975Z,29.87
2018-03-26T18:45:56.477Z,29.20
2018-03-26T18:48:23.981Z,28.70
2018-03-26T18:50:51.521Z,30.77
2018-03-26T18:53:20.035Z,29.17
2018-03-26T18:55:47.584Z,30.23
2018-03-26T18:58:15.135Z,28.57
2018-03-26T19:00:42.679Z,29.50
2018-03-26T19:03:10.953Z,31.00
2018-03-26T19:05:39.240Z,29.03
2018-03-26T19:08:07.496Z,29.33
2018-03-26T19:10:35.784Z,30.47
2018-03-26T19:13:04.049Z,29.97
2018-03-26T19:15:31.657Z,32.13
2018-03-26T19:17:59.206Z,30.43
2018-03-26T19:20:26.750Z,30.90
2018-03-26T19:22:55.033Z,31.10
2018-03-26T19:25:22.541Z,30.27
2018-03-26T19:27:50.064Z,33.63
2018-03-26T19:30:17.574Z,32.70
2018-03-26T19:32:46.317Z,36.57
2018-03-26T19:35:13.869Z,36.87
2018-03-26T19:37:41.364Z,36.23
2018-03-26T19:40:08.938Z,37.20
2018-03-26T19:42:36.437Z,37.17
2018-03-26T19:45:03.951Z,37.47
2018-03-26T19:47:31.438Z,43.57
2018-03-26T19:49:59.705Z,42.37
2018-03-26T19:52:27.207Z,44.70
2018-03-26T19:54:54.754Z,43.40
2018-03-26T19:57:22.245Z,43.63
2018-03-26T19:59:49.762Z,47.10
2018-03-26T20:02:17.402Z,47.70
2018-03-26T20:04:44.964Z,50.00
2018-03-26T20:07:13.361Z,44.33
2018-03-26T20:09:41.051Z,46.37
2018-03-26T20:12:08.663Z,46.20
2018-03-26T20:14:37.051Z,45.37
2018-03-26T20:17:04.760Z,44.97
2018-03-26T20:19:33.081Z,44.90
2018-03-26T20:22:00.585Z,46.10
2018-03-26T20:24:28.078Z,46.30
2018-03-26T20:26:55.600Z,43.77
2018-03-26T20:29:23.116Z,44.47
2018-03-26T20:31:51.395Z,45.90
2018-03-26T20:34:18.910Z,42.40
2018-03-26T20:36:46.428Z,40.90
2018-03-26T20:39:14.862Z,36.37
2018-03-26T20:41:42.399Z,44.47
2018-03-26T20:44:09.921Z,40.43
2018-03-26T20:46:43.719Z,39.00
2018-03-26T20:49:11.999Z,41.33
2018-03-26T20:51:40.277Z,37.23
2018-03-26T20:54:08.658Z,42.80
2018-03-26T20:56:36.964Z,38.33
2018-03-26T20:59:04.567Z,40.03
2018-03-26T21:01:33.719Z,39.20
2018-03-26T21:04:01.218Z,36.60
2018-03-26T21:06:28.764Z,40.70
2018-03-26T21:08:56.333Z,42.17
2018-03-26T21:11:23.847Z,39.17
2018-03-26T21:13:51.380Z,37.17
2018-03-26T21:16:18.884Z,37.23
2018-03-26T21:18:46.411Z,39.27
2018-03-26T21:21:14.946Z,38.43
2018-03-26T21:23:42.463Z,39.50
2018-03-26T21:26:09.996Z,40.40
2018-03-26T21:28:39.024Z,43.07
2018-03-26T21:31:07.406Z,44.80
2018-03-26T21:33:34.977Z,41.90
2018-03-26T21:36:02.520Z,40.13
2018-03-26T21:38:30.076Z,43.73
2018-03-26T21:40:58.039Z,42.70
2018-03-26T21:43:25.575Z,41.40
2018-03-26T21:45:53.064Z,40.97
2018-03-26T21:48:20.620Z,40.07
2018-03-26T21:50:48.879Z,43.17
2018-03-26T21:53:16.384Z,41.30
2018-03-26T21:55:43.952Z,47.03
2018-03-26T21:58:11.460Z,47.57
2018-03-26T22:00:39.097Z,45.43
2018-03-26T22:03:06.620Z,46.67
2018-03-26T22:05:34.127Z,45.67
2018-03-26T22:08:02.396Z,45.83
2018-03-26T22:10:29.904Z,47.37
2018-03-26T22:12:57.415Z,48.50
2018-03-26T22:15:26.500Z,49.60
2018-03-26T22:17:54.098Z,51.53
2018-03-26T22:20:22.354Z,50.27
2018-03-26T22:22:49.847Z,47.83
2018-03-26T22:25:17.344Z,50.10
2018-03-26T22:27:44.855Z,44.87
2018-03-26T22:30:13.134Z,46.23
2018-03-26T22:32:40.640Z,43.67
2018-03-26T22:35:08.289Z,44.00
2018-03-26T22:37:35.808Z,43.67
2018-03-26T22:40:04.070Z,42.00
2018-03-26T22:42:33.108Z,43.47
2018-03-26T22:45:01.637Z,42.83
2018-03-26T22:47:29.919Z,45.10
2018-03-26T22:49:58.220Z,46.10
2018-03-26T22:52:25.737Z,45.93
2018-03-26T22:54:53.220Z,46.73
2018-03-26T22:57:21.511Z,49.20
2018-03-26T22:59:49.768Z,50.10
2018-03-26T23:02:18.040Z,47.70
2018-03-26T23:04:46.341Z,48.47
2018-03-26T23:07:14.607Z,51.70
2018-03-26T23:09:42.870Z,46.60
2018-03-26T23:12:11.185Z,46.70
2018-03-26T23:14:38.769Z,47.87
2018-03-26T23:17:06.299Z,44.77
2018-03-26T23:19:33.980Z,48.10
2018-03-26T23:22:01.524Z,47.10
2018-03-26T23:24:29.030Z,49.30
2018-03-26T23:26:56.517Z,48.80
2018-03-26T23:29:24.774Z,44.30
2018-03-26T23:31:52.382Z,46.03
2018-03-26T23:34:19.871Z,41.27
2018-03-26T23:36:47.398Z,45.77
2018-03-26T23:39:14.931Z,46.63
2018-03-26T23:41:43.222Z,45.57
2018-03-26T23:44:10.746Z,39.80
2018-03-26T23:46:38.326Z,45.57
2018-03-26T23:49:06.582Z,43.90
2018-03-26T23:51:34.180Z,47.50
2018-03-26T23:54:01.675Z,45.53
2018-03-26T23:56:29.191Z,45.00
2018-03-26T23:58:57.436Z,45.70
